Flight Track Log - Related Links

Times and Time Zones

All times are in EDT time to prevent confusion due to time zone crossing. See the SKW4618 flight status page for this flight to view local times or setup timezone preferences in your user account.

Time Position Orientation Groundspeed Altitude Reporting Facility
EDT Latitude Longitude Course Direction KTS MPH feet Rate Location/Type
Thu 03:26:30 PM 29.5117 -98.4819 281° West 176 203 1,600  Level Houston Center
Thu 03:29:16 PM 29.5394 -98.6497 327° Northwest 273 314 7,100 2,070 Climbing Houston Center
Thu 03:30:19 PM 29.5986 -98.7233 313° West 299 344 9,500 2,274 Climbing Houston Center
Thu 03:31:20 PM 29.6822 -98.7428 349° North 305 351 11,800 2,017 Climbing Houston Center
Thu 03:34:11 PM 29.9264 -98.8583 311° West 362 417 17,300 1,854 Climbing Fort Worth Center
Thu 03:35:13 PM 29.9894 -98.9489 309° West 362 417 19,000 1,548 Climbing Fort Worth Center
Thu 03:36:15 PM 30.0539 -99.0406 309° West 364 419 20,500 1,597 Climbing Fort Worth Center
Thu 03:37:17 PM 30.1222 -99.1356 310° West 377 434 22,300 1,500 Climbing Fort Worth Center
Thu 03:38:19 PM 30.1872 -99.2336 307° West 381 438 23,600 1,234 Climbing Fort Worth Center
Thu 03:39:38 PM 30.2842 -99.3753 308° West 399 459 25,200 1,106 Climbing Houston Center
Thu 03:40:40 PM 30.3586 -99.4778 310° West 414 476 26,200 1,065 Climbing Houston Center
Thu 03:41:42 PM 30.4325 -99.5817 310° West 418 481 27,400 1,016 Climbing Houston Center
Thu 03:42:44 PM 30.5228 -99.7106 309° West 427 491 28,300 871 Climbing Houston Center
Thu 03:43:46 PM 30.5997 -99.8211 309° West 440 506 29,200 919 Climbing Houston Center
Thu 03:44:48 PM 30.6528 -99.9522 295° West 448 516 30,200 1,024 Climbing Houston Center
Thu 03:46:36 PM 30.7444 -100.1847 295° West 448 516 32,100 1,024 Climbing Fort Worth Center
Thu 03:47:38 PM 30.7967 -100.3156 295° West 447 514 33,100 912 Climbing Fort Worth Center
Thu 03:48:41 PM 30.8481 -100.4467 295° West 447 514 34,000 383 Climbing Fort Worth Center
Thu 03:49:59 PM 30.9208 -100.6372 294° West 455 524 34,000  Level Houston Center
Thu 03:51:01 PM 30.9747 -100.7744 295° West 463 533 34,000  Level Houston Center
Thu 03:52:04 PM 31.0369 -100.9400 294° West 466 536 34,000  Level Houston Center
Thu 03:53:06 PM 31.0914 -101.0753 295° West 465 535 34,000  Level Houston Center
Thu 03:54:53 PM 31.1803 -101.3039 294° West 450 518 34,000  Level Fort Worth Center
Thu 03:56:12 PM 31.2814 -101.4642 306° West 441 507 34,000  Level Houston Center
Thu 03:57:14 PM 31.3558 -101.5736 309° West 437 503 34,000  Level Houston Center
Thu 03:59:02 PM 31.4633 -101.7894 300° West 429 494 34,000  Level Fort Worth Center
Thu 04:01:06 PM 31.5878 -102.0261 302° West 431 496 34,000  Level Fort Worth Center
Thu 04:02:08 PM 31.6606 -102.1414 307° West 442 509 34,000  Level Fort Worth Center
Thu 04:03:10 PM 31.7533 -102.2775 309° West 444 511 34,000  Level Fort Worth Center
Thu 04:04:12 PM 31.8383 -102.3850 313° West 448 516 34,000  Level Fort Worth Center
Thu 04:05:14 PM 31.9239 -102.4914 313° West 448 516 34,000  Level Fort Worth Center
Thu 04:06:17 PM 32.0081 -102.5997 313° West 449 517 34,000  Level Fort Worth Center
Thu 04:07:19 PM 32.0931 -102.7069 313° West 449 517 34,000  Level Fort Worth Center
Thu 04:09:23 PM 32.2803 -102.9431 313° West 442 509 34,000  Level Fort Worth Center
Thu 04:10:25 PM 32.3639 -103.0478 313° West 440 506 34,000  Level Fort Worth Center
Thu 04:12:38 PM 32.5450 -103.2789 313° West 436 502 34,000  Level Albuquerque Center
Thu 04:13:31 PM 32.6106 -103.3631 313° West 434 499 34,000  Level Fort Worth Center
Thu 04:14:34 PM 32.6925 -103.4664 313° West 432 497 34,000  Level Fort Worth Center
Thu 04:15:36 PM 32.7739 -103.5697 313° West 431 496 34,000  Level Fort Worth Center
Thu 04:16:38 PM 32.8700 -103.6942 313° West 429 494 34,000  Level Fort Worth Center
Thu 04:17:40 PM 32.9508 -103.7983 313° West 427 491 34,000  Level Fort Worth Center
Thu 04:18:42 PM 33.0306 -103.9017 313° West 426 490 34,000  Level Fort Worth Center
Thu 04:19:52 PM 33.1350 -104.0328 314° West 426 490 34,000  Level Albuquerque Center
Thu 04:20:54 PM 33.2147 -104.1356 313° West 424 488 34,000  Level Albuquerque Center
Thu 04:22:58 PM 33.3731 -104.3469 312° West 422 486 34,000  Level Albuquerque Center
Thu 04:24:00 PM 33.4517 -104.4531 312° West 423 487 34,000  Level Albuquerque Center
Thu 04:25:01 PM 33.5417 -104.5675 313° West 427 491 34,000  Level Albuquerque Center
Thu 04:26:03 PM 33.6200 -104.6717 312° West 425 489 34,000  Level Albuquerque Center
Thu 04:27:05 PM 33.7156 -104.7694 320° Northwest 422 486 34,000  Level Albuquerque Center
Thu 04:28:07 PM 33.8033 -104.8628 319° Northwest 422 486 34,000  Level Albuquerque Center
Thu 04:29:09 PM 33.8981 -104.9622 319° Northwest 421 484 34,000  Level Albuquerque Center
Thu 04:30:11 PM 33.9869 -105.0542 319° Northwest 421 484 34,000  Level Albuquerque Center
Thu 04:31:13 PM 34.0761 -105.1486 319° Northwest 425 489 34,000  Level Albuquerque Center
Thu 04:33:16 PM 34.2608 -105.3425 316° Northwest 431 496 34,000  Level Albuquerque Center
Thu 04:35:20 PM 34.4453 -105.5408 318° Northwest 435 501 34,000  Level Albuquerque Center
Thu 04:36:22 PM 34.5389 -105.6400 319° Northwest 436 502 34,000  Level Albuquerque Center
Thu 04:37:24 PM 34.6481 -105.7561 319° Northwest 441 507 34,000  Level Albuquerque Center
Thu 04:38:25 PM 34.7411 -105.8564 318° Northwest 441 507 34,000  Level Albuquerque Center
Thu 04:39:27 PM 34.8333 -105.9558 319° Northwest 441 507 34,000  Level Albuquerque Center
Thu 04:40:29 PM 34.9228 -106.0608 316° Northwest 442 509 34,000  Level Albuquerque Center
Thu 04:42:32 PM 35.1092 -106.2633 317° Northwest 443 510 34,000  Level Albuquerque Center
Thu 04:43:34 PM 35.2033 -106.3658 318° Northwest 447 514 34,000  Level Albuquerque Center
Thu 04:44:36 PM 35.2972 -106.4681 318° Northwest 448 516 34,000  Level Albuquerque Center
Thu 04:45:37 PM 35.4022 -106.5833 318° Northwest 440 506 34,000  Level Albuquerque Center
Thu 04:46:39 PM 35.4928 -106.6828 318° Northwest 438 504 34,000  Level Albuquerque Center
Thu 04:48:43 PM 35.6769 -106.8883 318° Northwest 438 504 34,000  Level Albuquerque Center
Thu 04:49:44 PM 35.7656 -106.9847 319° Northwest 440 506 34,000  Level Albuquerque Center
Thu 04:50:46 PM 35.8675 -107.0969 318° Northwest 441 507 34,000  Level Albuquerque Center
Thu 04:52:50 PM 36.0547 -107.3078 318° Northwest 441 507 34,000  Level Albuquerque Center
Thu 04:54:53 PM 36.2442 -107.5200 318° Northwest 441 507 34,000  Level Albuquerque Center
Thu 04:55:55 PM 36.3303 -107.6192 317° Northwest 441 507 34,000  Level Albuquerque Center
Thu 04:56:58 PM 36.4314 -107.7336 318° Northwest 441 507 34,000  Level Denver Center
Thu 04:59:00 PM 36.6067 -107.9342 317° Northwest 444 511 34,000  Level Albuquerque Center
Thu 05:00:04 PM 36.7083 -108.0494 318° Northwest 444 511 34,000  Level Denver Center
Thu 05:02:09 PM 36.9325 -108.2094 330° Northwest 448 516 34,000  Level Denver Center
Thu 05:03:11 PM 37.0569 -108.2822 335° Northwest 448 516 34,000  Level Denver Center
Thu 05:04:13 PM 37.1661 -108.3469 335° Northwest 448 516 34,000  Level Denver Center
Thu 05:05:15 PM 37.2936 -108.4258 334° Northwest 454 522 34,000  Level Denver Center
Thu 05:09:23 PM 37.7708 -108.7094 319° Northwest 458 527 34,000  Level Denver Center
Thu 05:11:33 PM 38.0481 -108.7219 358° North 468 539 34,000  Level Salt Lake Center
Thu 05:12:29 PM 38.1603 -108.7250 359° North 459 528 34,000  Level Denver Center
Thu 05:13:31 PM 38.2825 -108.7269 359° North 460 529 34,000  Level Denver Center
Thu 05:14:00 PM 38.1940 -108.9631 335° Northwest  Level FlightAware Approximate
Thu 05:15:00 PM 38.2804 -109.0585 319° Northwest  Level Estimated
Thu 05:15:41 PM 38.5278 -108.8333 341° North 468 539 34,000  Level Salt Lake Center
Thu 05:16:38 PM 38.6361 -108.9406 322° Northwest 452 520 34,000  Level Denver Center
Thu 05:17:40 PM 38.7419 -109.0472 322° Northwest 452 520 34,000  Level Denver Center
Thu 05:18:42 PM 38.8422 -109.1467 322° Northwest 453 521 34,000  Level Denver Center
Thu 05:19:49 PM 38.9444 -109.2489 322° Northwest 455 524 34,000  Level Salt Lake Center
Thu 05:20:51 PM 39.0458 -109.3511 322° Northwest 444 511 34,000  Level Salt Lake Center
Thu 05:21:48 PM 39.1381 -109.4456 322° Northwest 439 505 34,000 -339 Level Denver Center
Thu 05:22:55 PM 39.2447 -109.5533 322° Northwest 440 506 33,300 -645 Descending Salt Lake Center
Thu 05:24:54 PM 39.4303 -109.7486 321° Northwest 446 513 32,000 -431 Descending Denver Center
Thu 05:25:00 PM 39.3462 -109.6590 321° Northwest  Level FlightAware Approximate
Thu 05:25:56 PM 39.4992 -109.8958 301° West 433 498 32,000  Level Denver Center
Thu 05:26:58 PM 39.5497 -110.0258 297° West 424 488 32,000  Level Denver Center
Thu 05:28:05 PM 39.6083 -110.1733 297° West 423 487 32,000  Level Salt Lake Center
Thu 05:29:07 PM 39.6614 -110.3083 297° West 423 487 32,000  Level Salt Lake Center
Thu 05:30:09 PM 39.7256 -110.4728 297° West 423 487 32,000 -265 Level Salt Lake Center
Thu 05:32:08 PM 39.8328 -110.7542 296° West 437 503 31,200 -1,427 Descending Denver Center
Thu 05:34:17 PM 39.9386 -111.0342 296° West 419 482 26,100 -2,375 Descending Salt Lake Center
Thu 05:35:20 PM 39.9883 -111.1672 296° West 412 474 23,600 -2,640 Descending Salt Lake Center
Thu 05:36:22 PM 40.0481 -111.3256 296° West 409 471 20,600 -2,226 Descending Salt Lake Center
Thu 05:37:24 PM 40.0947 -111.4511 296° West 386 444 19,000 -774 Descending Salt Lake Center
Thu 05:38:26 PM 40.1381 -111.5692 296° West 364 419 19,000  Level Salt Lake Center
Thu 05:39:28 PM 40.1811 -111.6847 296° West 351 404 19,000  Level Salt Lake Center
Thu 05:41:32 PM 40.2908 -111.8747 315° West 331 381 19,000 -242 Level Salt Lake Center
Thu 05:43:36 PM 40.4383 -112.0447 North 319 367 18,000 -326 Descending Salt Lake Center
Thu 05:44:36 PM 40.5300 -112.0617 352° North 339 390 18,000 -198 Level Salt Lake Center
Thu 05:45:37 PM 40.6308 -112.0814 352° North 341 392 17,600 -976 Descending Salt Lake Center
Thu 05:46:39 PM 40.7233 -112.0925 355° North 331 381 16,000 -1,623 Descending Salt Lake Center
Thu 05:47:39 PM 40.8133 -112.1017 356° North 320 368 14,300 -1,488 Descending Salt Lake Center
Thu 05:48:40 PM 40.8989 -112.1097 356° North 296 341 13,000 -1,082 Descending Salt Lake Center
Thu 05:49:41 PM 40.9736 -112.1183 355° North 265 305 12,100 -1,180 Descending Salt Lake Center
Thu 05:50:42 PM 41.0506 -112.1264 355° North 274 315 10,600 -889 Descending Salt Lake Center
Thu 05:53:44 PM 41.0083 -111.9986 102° East 233 268 8,500 -677 Descending Salt Lake Center
Thu 05:53:57 PM 41.0042 -111.9992 186° South 237 273 8,400 -1,475 Descending Salt Lake Center
Thu 05:54:45 PM 40.9447 -111.9919 175° South 229 264 7,000 -1,548 Descending Salt Lake Center
Thu 05:54:59 PM 40.9308 -111.9922 181° South 219 252 6,800 -984 Descending Salt Lake Center
Thu 05:56:47 PM 40.8481 -111.9822 175° South 152 175 5,000 -1,000 Descending Salt Lake Center
Thu 05:58:00 PM 40.7833 -111.9667 102° East  Level FlightAware Approximate
Thu 05:59:00 PM 40.7884 -111.9778 102° East  Level Estimated
Thu 06:05:00 PM 40.7884 -111.9778 102° East  Level Estimated
Thu 06:06:00 PM 40.7884 -111.9778 102° East  Level Estimated

Login

Don't have an account? Register now (free) for customized features, flight alerts, and more!